createdAt,value
2019-02-06T00:00:52.517Z,20.43
2019-02-06T00:03:22.756Z,18.53
2019-02-06T00:05:52.620Z,19.00
2019-02-06T00:08:22.273Z,19.77
2019-02-06T00:10:51.876Z,18.40
2019-02-06T00:13:21.531Z,18.67
2019-02-06T00:15:51.645Z,18.27
2019-02-06T00:18:21.352Z,18.33
2019-02-06T00:20:50.758Z,18.17
2019-02-06T00:23:20.099Z,17.53
2019-02-06T00:25:49.792Z,18.57
2019-02-06T00:28:19.538Z,18.27
2019-02-06T00:30:49.194Z,17.87
2019-02-06T00:33:18.886Z,18.00
2019-02-06T00:35:48.167Z,16.27
2019-02-06T00:38:18.232Z,17.67
2019-02-06T00:40:47.587Z,17.10
2019-02-06T00:43:17.617Z,19.13
2019-02-06T00:45:47.461Z,17.37
2019-02-06T00:48:17.555Z,16.03
2019-02-06T00:50:46.944Z,17.70
2019-02-06T00:53:16.951Z,16.30
2019-02-06T00:55:46.886Z,16.73
2019-02-06T00:58:16.113Z,17.00
2019-02-06T01:00:45.776Z,16.70
2019-02-06T01:03:15.753Z,17.73
2019-02-06T01:05:45.239Z,16.20
2019-02-06T01:08:14.970Z,16.80
2019-02-06T01:10:44.917Z,16.30
2019-02-06T01:13:14.505Z,17.60
2019-02-06T01:15:43.821Z,17.03
2019-02-06T01:18:13.478Z,18.17
2019-02-06T01:20:42.721Z,17.63
2019-02-06T01:23:15.882Z,16.93
2019-02-06T01:25:43.951Z,16.10
2019-02-06T01:28:14.027Z,17.87
2019-02-06T01:30:56.808Z,18.90
2019-02-06T01:33:26.142Z,16.73
2019-02-06T01:35:56.216Z,18.27
2019-02-06T01:38:25.474Z,18.07
2019-02-06T01:40:54.760Z,20.67
2019-02-06T01:43:24.698Z,18.77
2019-02-06T01:45:54.680Z,17.77
2019-02-06T01:48:23.873Z,18.53
2019-02-06T01:50:53.214Z,19.30
2019-02-06T01:53:22.489Z,18.60
2019-02-06T01:55:52.902Z,19.67
2019-02-06T01:58:22.332Z,21.30
2019-02-06T02:00:51.589Z,20.43
2019-02-06T02:03:22.094Z,21.23
2019-02-06T02:06:01.827Z,21.03
2019-02-06T02:08:24.083Z,23.10
2019-02-06T02:10:53.707Z,20.77
2019-02-06T02:13:23.541Z,20.30
2019-02-06T02:15:52.827Z,22.87
2019-02-06T02:18:22.480Z,19.90
2019-02-06T02:20:51.689Z,23.90
2019-02-06T02:23:21.772Z,23.50
2019-02-06T02:25:51.971Z,24.40
2019-02-06T02:28:27.698Z,23.13
2019-02-06T02:30:57.465Z,21.17
2019-02-06T02:33:26.740Z,22.17
2019-02-06T02:36:16.577Z,21.50
2019-02-06T02:38:46.796Z,23.30
2019-02-06T02:41:16.463Z,23.27
2019-02-06T02:43:46.394Z,22.70
2019-02-06T02:46:16.418Z,22.23
2019-02-06T02:48:46.477Z,23.10
2019-02-06T02:51:16.711Z,22.33
2019-02-06T02:53:46.614Z,23.37
2019-02-06T02:56:16.163Z,23.93
2019-02-06T02:58:45.580Z,22.57
2019-02-06T03:01:33.570Z,23.47
2019-02-06T03:04:07.857Z,22.60
2019-02-06T03:06:56.494Z,20.80
2019-02-06T03:09:26.292Z,21.60
2019-02-06T03:11:56.112Z,23.17
2019-02-06T03:14:25.554Z,22.40
2019-02-06T03:16:54.898Z,23.90
2019-02-06T03:19:24.155Z,23.77
2019-02-06T03:21:53.386Z,23.47
2019-02-06T03:24:23.054Z,25.03
2019-02-06T03:26:53.007Z,24.50
2019-02-06T03:29:22.261Z,23.20
2019-02-06T03:31:51.508Z,24.60
2019-02-06T03:34:21.439Z,22.47
2019-02-06T03:36:50.751Z,23.37
2019-02-06T03:39:19.994Z,26.00
2019-02-06T03:41:49.695Z,23.30
2019-02-06T03:44:18.926Z,22.23
2019-02-06T03:46:48.522Z,23.40
2019-02-06T03:49:17.756Z,22.90
2019-02-06T03:51:47.375Z,23.50
2019-02-06T03:54:17.322Z,23.10
2019-02-06T03:56:47.330Z,26.07
2019-02-06T03:59:17.006Z,24.23
2019-02-06T04:01:46.345Z,22.83
2019-02-06T04:04:15.876Z,23.13
2019-02-06T04:06:53.629Z,23.67
2019-02-06T04:09:16.444Z,24.73
2019-02-06T04:11:46.232Z,22.63
2019-02-06T04:14:16.128Z,23.77
2019-02-06T04:16:45.719Z,22.87
2019-02-06T04:19:15.294Z,22.40
2019-02-06T04:21:44.592Z,22.90
2019-02-06T04:24:13.951Z,22.17
2019-02-06T04:26:43.539Z,22.30
2019-02-06T04:29:12.805Z,23.43
2019-02-06T04:31:42.050Z,24.03
2019-02-06T04:34:11.671Z,24.53
2019-02-06T04:36:41.725Z,23.03
2019-02-06T04:39:10.974Z,20.63
2019-02-06T04:41:40.566Z,23.20
2019-02-06T04:44:29.127Z,21.90
2019-02-06T04:46:58.353Z,23.37
2019-02-06T04:49:27.802Z,23.80
2019-02-06T04:51:57.018Z,23.83
2019-02-06T04:54:27.150Z,22.67
2019-02-06T04:56:57.035Z,22.97
2019-02-06T04:59:26.616Z,24.27
2019-02-06T05:01:56.584Z,23.17
2019-02-06T05:04:26.198Z,21.60
2019-02-06T05:06:55.423Z,23.23
2019-02-06T05:09:24.917Z,24.10
2019-02-06T05:11:54.508Z,23.70
2019-02-06T05:14:23.913Z,21.20
2019-02-06T05:16:53.441Z,20.40
2019-02-06T05:19:22.675Z,21.10
2019-02-06T05:21:52.607Z,23.20
2019-02-06T05:24:22.046Z,22.87
2019-02-06T05:26:51.440Z,24.27
2019-02-06T05:29:21.017Z,20.50
2019-02-06T05:31:50.337Z,22.00
2019-02-06T05:34:19.983Z,20.33
2019-02-06T05:36:50.998Z,20.90
2019-02-06T05:39:20.496Z,19.73
2019-02-06T05:41:50.114Z,21.63
2019-02-06T05:44:20.295Z,20.57
2019-02-06T05:46:49.660Z,21.57
2019-02-06T05:49:38.458Z,19.90
2019-02-06T05:52:07.864Z,17.90
2019-02-06T05:54:37.480Z,18.20
2019-02-06T05:57:06.886Z,18.73
2019-02-06T05:59:36.678Z,20.53
2019-02-06T06:02:06.359Z,19.33
2019-02-06T06:04:35.958Z,17.43
2019-02-06T06:07:05.791Z,19.57
2019-02-06T06:09:35.461Z,18.43
2019-02-06T06:12:04.745Z,18.83
2019-02-06T06:14:34.859Z,17.30
2019-02-06T06:17:04.451Z,17.10
2019-02-06T06:19:33.691Z,16.17
2019-02-06T06:22:03.072Z,16.13
2019-02-06T06:24:32.325Z,16.37
2019-02-06T06:27:02.366Z,15.97
2019-02-06T06:29:50.740Z,15.90
2019-02-06T06:32:20.653Z,17.73
2019-02-06T06:34:50.111Z,16.30
2019-02-06T06:37:19.398Z,15.90
2019-02-06T06:39:48.708Z,16.80
2019-02-06T06:42:18.325Z,16.33
2019-02-06T06:44:47.923Z,14.20
2019-02-06T06:47:17.204Z,16.37
2019-02-06T06:49:46.870Z,15.93
2019-02-06T06:52:16.136Z,14.53
2019-02-06T06:54:45.793Z,13.43
2019-02-06T06:57:15.332Z,15.67
2019-02-06T06:59:44.682Z,15.53
2019-02-06T07:02:14.373Z,13.70
2019-02-06T07:04:44.033Z,14.93
2019-02-06T07:07:13.737Z,14.40
2019-02-06T07:09:43.350Z,13.20
2019-02-06T07:12:13.397Z,14.90
2019-02-06T07:14:42.995Z,13.43
2019-02-06T07:17:12.327Z,13.17
2019-02-06T07:19:42.093Z,12.60
2019-02-06T07:22:11.329Z,14.50
2019-02-06T07:24:40.941Z,13.90
2019-02-06T07:27:10.359Z,14.30
2019-02-06T07:29:39.639Z,13.00
2019-02-06T07:32:09.243Z,13.10
2019-02-06T07:34:39.301Z,12.50
2019-02-06T07:37:08.907Z,13.97
2019-02-06T07:39:38.547Z,13.80
2019-02-06T07:42:07.885Z,13.00
2019-02-06T07:44:37.279Z,13.73
2019-02-06T07:47:07.071Z,12.03
2019-02-06T07:49:36.650Z,14.60
2019-02-06T07:52:06.068Z,13.83
2019-02-06T07:54:35.643Z,13.03
2019-02-06T07:57:04.910Z,12.93
2019-02-06T07:59:34.781Z,11.63
2019-02-06T08:02:04.074Z,12.97
2019-02-06T08:04:33.774Z,11.80
2019-02-06T08:07:03.113Z,12.93
2019-02-06T08:09:32.426Z,14.20
2019-02-06T08:12:02.005Z,11.47
2019-02-06T08:14:31.360Z,11.90
2019-02-06T08:17:01.119Z,13.67
2019-02-06T08:19:31.056Z,13.07
2019-02-06T08:22:00.656Z,11.90
2019-02-06T08:24:30.085Z,12.53
2019-02-06T08:26:59.318Z,13.90
2019-02-06T08:29:28.581Z,12.60
2019-02-06T08:31:58.174Z,12.93
2019-02-06T08:34:28.391Z,12.13
2019-02-06T08:36:57.984Z,12.50
2019-02-06T08:39:28.344Z,12.80
2019-02-06T08:41:57.563Z,13.00
2019-02-06T08:44:27.186Z,13.67
2019-02-06T08:46:57.202Z,12.40
2019-02-06T08:49:26.934Z,11.93
2019-02-06T08:51:56.434Z,13.40
2019-02-06T08:54:26.410Z,10.77
2019-02-06T08:56:55.782Z,12.60
2019-02-06T08:59:25.027Z,10.87
2019-02-06T09:01:54.629Z,12.50
2019-02-06T09:04:24.357Z,10.90
2019-02-06T09:06:53.722Z,10.10
2019-02-06T09:09:23.295Z,11.43
2019-02-06T09:11:52.548Z,11.20
2019-02-06T09:14:22.482Z,10.10
2019-02-06T09:16:51.860Z,12.57
2019-02-06T09:19:21.439Z,10.77
2019-02-06T09:21:50.699Z,10.33
2019-02-06T09:24:20.715Z,11.30
2019-02-06T09:26:50.755Z,11.77
2019-02-06T09:29:20.395Z,10.90
2019-02-06T09:31:49.594Z,11.30
2019-02-06T09:34:19.220Z,11.47
2019-02-06T09:36:48.598Z,11.43
2019-02-06T09:39:17.863Z,11.23
2019-02-06T09:41:47.947Z,10.80
2019-02-06T09:44:17.586Z,9.63
2019-02-06T09:46:47.914Z,10.53
2019-02-06T09:49:17.526Z,10.80
2019-02-06T09:51:46.922Z,9.63
2019-02-06T09:54:16.114Z,9.90
2019-02-06T09:56:45.387Z,9.40
2019-02-06T09:59:14.606Z,9.90
2019-02-06T10:01:43.984Z,9.23
2019-02-06T10:04:13.633Z,9.67
2019-02-06T10:06:43.677Z,9.00
2019-02-06T10:09:22.558Z,9.30
2019-02-06T10:11:44.575Z,9.17
2019-02-06T10:14:14.137Z,9.27
2019-02-06T10:16:43.682Z,8.50
2019-02-06T10:19:13.727Z,8.30
2019-02-06T10:21:43.348Z,8.03
2019-02-06T10:24:13.058Z,8.90
2019-02-06T10:26:42.688Z,8.50
2019-02-06T10:29:31.162Z,8.47
2019-02-06T10:32:00.760Z,8.00
2019-02-06T10:34:30.345Z,8.00
2019-02-06T10:36:59.688Z,8.07
2019-02-06T10:39:34.612Z,8.93
2019-02-06T10:42:00.732Z,8.10
2019-02-06T10:44:30.441Z,9.00
2019-02-06T10:46:59.772Z,8.67
2019-02-06T10:49:29.577Z,8.33
2019-02-06T10:51:59.211Z,7.17
2019-02-06T10:54:28.573Z,7.97
2019-02-06T10:56:58.123Z,7.60
2019-02-06T10:59:28.188Z,7.20
2019-02-06T11:01:57.703Z,7.47
2019-02-06T11:04:27.472Z,7.70
2019-02-06T11:06:56.761Z,7.53
2019-02-06T11:09:26.379Z,8.00
2019-02-06T11:11:56.482Z,6.33
2019-02-06T11:14:26.732Z,7.43
2019-02-06T11:16:56.347Z,7.20
2019-02-06T11:19:25.729Z,6.47
2019-02-06T11:21:55.098Z,7.80
2019-02-06T11:24:26.738Z,7.43
2019-02-06T11:26:56.665Z,7.23
2019-02-06T11:29:26.558Z,6.50
2019-02-06T11:31:56.091Z,7.23
2019-02-06T11:34:25.368Z,6.60
2019-02-06T11:36:55.359Z,7.23
2019-02-06T11:39:24.704Z,7.70
2019-02-06T11:41:54.323Z,7.23
2019-02-06T11:44:23.934Z,7.20
2019-02-06T11:46:53.191Z,7.33
2019-02-06T11:49:28.217Z,6.57
2019-02-06T11:51:57.584Z,6.70
2019-02-06T11:54:27.185Z,6.70
2019-02-06T11:56:56.799Z,7.40
2019-02-06T11:59:26.450Z,7.10
2019-02-06T12:01:56.767Z,8.10
2019-02-06T12:04:26.160Z,7.67
2019-02-06T12:06:55.551Z,6.63
2019-02-06T12:09:24.786Z,6.07
2019-02-06T12:11:54.476Z,7.17
2019-02-06T12:14:23.994Z,6.97
2019-02-06T12:16:53.598Z,8.37
2019-02-06T12:19:23.121Z,7.87
2019-02-06T12:21:52.741Z,8.07
2019-02-06T12:24:22.488Z,8.80
2019-02-06T12:26:52.153Z,7.83
2019-02-06T12:29:21.576Z,8.50
2019-02-06T12:31:51.382Z,10.13
2019-02-06T12:34:20.832Z,9.30
2019-02-06T12:36:50.138Z,9.10
2019-02-06T12:39:22.615Z,8.40
2019-02-06T12:41:50.565Z,9.57
2019-02-06T12:44:20.390Z,10.00
2019-02-06T12:46:49.801Z,9.47
2019-02-06T12:49:19.033Z,9.87
2019-02-06T12:51:48.646Z,8.53
2019-02-06T12:54:17.873Z,8.13
2019-02-06T12:56:47.246Z,8.93
2019-02-06T12:59:16.622Z,8.97
2019-02-06T13:01:46.517Z,8.57
2019-02-06T13:04:16.551Z,7.60
2019-02-06T13:06:45.824Z,7.70
2019-02-06T13:09:15.437Z,7.90
2019-02-06T13:11:44.731Z,8.60
2019-02-06T13:14:14.250Z,7.50
2019-02-06T13:16:43.785Z,8.67
2019-02-06T13:19:13.699Z,9.23
2019-02-06T13:21:43.347Z,9.43
2019-02-06T13:24:12.627Z,7.73
2019-02-06T13:26:44.221Z,8.80
2019-02-06T13:29:13.277Z,8.50
2019-02-06T13:31:43.403Z,8.90
2019-02-06T13:34:13.090Z,7.43
2019-02-06T13:36:42.358Z,8.13
2019-02-06T13:39:12.009Z,8.83
2019-02-06T13:41:41.336Z,8.70
2019-02-06T13:44:11.595Z,7.77
2019-02-06T13:46:52.768Z,8.73
2019-02-06T13:49:12.392Z,7.07
2019-02-06T13:51:42.044Z,8.10
2019-02-06T13:54:11.366Z,7.63
2019-02-06T13:56:41.013Z,8.93
2019-02-06T13:59:11.058Z,9.20
2019-02-06T14:01:40.622Z,8.77
2019-02-06T14:04:09.916Z,8.33
2019-02-06T14:06:39.704Z,8.23
2019-02-06T14:09:22.198Z,8.80
2019-02-06T14:12:04.270Z,8.23
2019-02-06T14:14:33.539Z,7.63
2019-02-06T14:17:02.785Z,8.27
2019-02-06T14:19:32.026Z,7.40
2019-02-06T14:22:01.280Z,8.27
2019-02-06T14:25:06.982Z,8.47
2019-02-06T14:28:26.782Z,9.20
2019-02-06T14:31:39.214Z,7.40
2019-02-06T14:34:48.618Z,7.60
2019-02-06T14:38:20.425Z,7.03
2019-02-06T14:41:26.946Z,6.97
2019-02-06T14:44:16.517Z,6.83
2019-02-06T14:47:20.081Z,7.47
2019-02-06T14:50:09.441Z,6.90
2019-02-06T14:52:48.494Z,7.20
2019-02-06T14:55:56.360Z,7.50
2019-02-06T14:59:18.926Z,7.00
2019-02-06T15:02:41.757Z,8.20
2019-02-06T15:05:42.406Z,8.17
2019-02-06T15:08:37.760Z,8.80
2019-02-06T15:11:21.744Z,8.70
2019-02-06T15:14:45.908Z,8.03
2019-02-06T15:18:04.919Z,8.60
2019-02-06T15:20:56.956Z,8.90
2019-02-06T15:24:10.593Z,10.20
2019-02-06T15:27:08.531Z,9.83
2019-02-06T15:30:22.451Z,10.57
2019-02-06T15:33:13.426Z,10.37
2019-02-06T15:36:20.486Z,11.30
2019-02-06T15:39:26.906Z,10.37
2019-02-06T15:42:06.961Z,11.87
2019-02-06T15:44:47.051Z,11.23
2019-02-06T15:47:51.153Z,13.60
2019-02-06T15:50:57.926Z,14.10
2019-02-06T15:54:13.473Z,12.30
2019-02-06T15:57:11.323Z,13.00
2019-02-06T16:00:24.432Z,13.90
2019-02-06T16:03:56.900Z,15.50
2019-02-06T16:06:55.586Z,14.50
2019-02-06T16:10:14.338Z,16.37
2019-02-06T16:13:09.598Z,13.97
2019-02-06T16:16:06.636Z,14.40
2019-02-06T16:19:22.414Z,14.77
2019-02-06T16:22:24.558Z,16.60
2019-02-06T16:25:07.616Z,15.13
2019-02-06T16:28:15.664Z,14.80
2019-02-06T16:31:36.080Z,16.47
2019-02-06T16:35:11.075Z,17.17
2019-02-06T16:38:23.472Z,16.60
2019-02-06T16:41:12.225Z,17.27
2019-02-06T16:44:35.218Z,15.90
2019-02-06T16:47:47.914Z,19.47
2019-02-06T16:50:42.871Z,15.60
2019-02-06T16:54:08.491Z,17.37
2019-02-06T16:57:14.139Z,17.33
2019-02-06T17:00:30.060Z,16.43
2019-02-06T17:03:37.324Z,18.07
2019-02-06T17:06:38.118Z,17.80
2019-02-06T17:09:54.182Z,17.70
2019-02-06T17:12:42.298Z,19.40
2019-02-06T17:15:49.066Z,18.97
2019-02-06T17:18:49.236Z,20.70
2019-02-06T17:22:00.438Z,20.40
2019-02-06T17:25:02.608Z,19.10
2019-02-06T17:28:07.450Z,21.33
2019-02-06T17:31:16.755Z,20.80
2019-02-06T17:34:21.076Z,21.00
2019-02-06T17:37:22.278Z,20.40
2019-02-06T17:40:09.661Z,20.77
2019-02-06T17:43:15.916Z,20.67
2019-02-06T17:46:08.218Z,18.43
2019-02-06T17:49:04.466Z,21.83
2019-02-06T17:52:20.183Z,21.20
2019-02-06T17:55:22.213Z,22.20
2019-02-06T17:57:56.300Z,22.37
2019-02-06T18:00:32.601Z,24.33
2019-02-06T18:03:04.006Z,22.47
2019-02-06T18:05:33.751Z,21.57
2019-02-06T18:08:04.120Z,20.10
2019-02-06T18:10:34.190Z,22.23
2019-02-06T18:13:03.487Z,22.93
2019-02-06T18:15:32.700Z,23.70
2019-02-06T18:18:03.239Z,22.77
2019-02-06T18:20:32.831Z,23.47
2019-02-06T18:23:02.791Z,23.17
2019-02-06T18:25:32.514Z,25.57
2019-02-06T18:28:02.587Z,24.10
2019-02-06T18:30:32.436Z,24.43
2019-02-06T18:33:01.785Z,25.83
2019-02-06T18:35:31.189Z,26.97
2019-02-06T18:38:01.265Z,23.80
2019-02-06T18:40:31.105Z,26.80
2019-02-06T18:43:01.002Z,26.50
2019-02-06T18:45:31.168Z,26.83
2019-02-06T18:48:01.902Z,25.43
2019-02-06T18:50:31.654Z,27.60
2019-02-06T18:53:01.430Z,25.80
2019-02-06T18:55:30.655Z,25.80
2019-02-06T18:58:00.689Z,25.97
2019-02-06T19:00:32.484Z,24.00
2019-02-06T19:03:02.847Z,25.80
2019-02-06T19:05:34.685Z,28.40
2019-02-06T19:08:04.628Z,25.83
2019-02-06T19:10:34.408Z,25.93
2019-02-06T19:13:03.987Z,23.87
2019-02-06T19:15:34.263Z,24.00
2019-02-06T19:18:03.978Z,26.00
2019-02-06T19:20:35.696Z,24.40
2019-02-06T19:23:04.808Z,23.70
2019-02-06T19:25:35.148Z,27.27
2019-02-06T19:28:04.918Z,25.53
2019-02-06T19:30:36.626Z,24.30
2019-02-06T19:34:01.057Z,24.67
2019-02-06T19:36:30.768Z,25.20
2019-02-06T19:39:00.016Z,24.83
2019-02-06T19:41:29.567Z,24.70
2019-02-06T19:43:59.317Z,27.67
2019-02-06T19:46:28.589Z,25.70
2019-02-06T19:48:58.260Z,26.47
2019-02-06T19:51:27.927Z,25.23
2019-02-06T19:53:57.169Z,26.40
2019-02-06T19:56:26.444Z,25.80
2019-02-06T19:58:56.179Z,25.97
2019-02-06T20:01:25.824Z,27.07
2019-02-06T20:03:55.433Z,27.80
2019-02-06T20:06:32.267Z,27.00
2019-02-06T20:09:11.759Z,28.20
2019-02-06T20:11:41.570Z,28.50
2019-02-06T20:14:11.867Z,28.33
2019-02-06T20:16:41.219Z,29.67
2019-02-06T20:19:10.884Z,28.30
2019-02-06T20:21:40.911Z,28.90
2019-02-06T20:24:10.655Z,30.37
2019-02-06T20:26:40.076Z,28.67
2019-02-06T20:29:09.673Z,29.87
2019-02-06T20:31:39.879Z,28.57
2019-02-06T20:34:09.411Z,29.97
2019-02-06T20:36:38.981Z,29.60
2019-02-06T20:39:09.993Z,30.10
2019-02-06T20:41:39.680Z,30.37
2019-02-06T20:44:09.330Z,31.40
2019-02-06T20:46:39.026Z,29.40
2019-02-06T20:49:08.326Z,29.10
2019-02-06T20:51:37.862Z,29.80
2019-02-06T20:54:08.448Z,30.90
2019-02-06T20:56:37.706Z,31.00
2019-02-06T20:59:07.433Z,34.00
2019-02-06T21:01:37.063Z,32.00
2019-02-06T21:04:06.660Z,30.40
2019-02-06T21:06:36.282Z,33.77
2019-02-06T21:09:11.008Z,33.40
2019-02-06T21:11:40.693Z,34.53
2019-02-06T21:14:09.924Z,36.33
2019-02-06T21:16:39.563Z,32.67
2019-02-06T21:19:08.847Z,34.03
2019-02-06T21:21:38.219Z,33.60
2019-02-06T21:24:08.271Z,32.53
2019-02-06T21:26:37.910Z,32.20
2019-02-06T21:29:07.443Z,33.20
2019-02-06T21:31:36.659Z,34.60
2019-02-06T21:34:06.714Z,31.80
2019-02-06T21:36:36.282Z,32.67
2019-02-06T21:39:09.490Z,33.93
2019-02-06T21:41:39.659Z,33.70
2019-02-06T21:44:08.934Z,33.53
2019-02-06T21:46:38.487Z,28.83
2019-02-06T21:49:08.088Z,32.83
2019-02-06T21:51:37.485Z,32.93
2019-02-06T21:54:07.130Z,33.40
2019-02-06T21:56:36.488Z,31.50
2019-02-06T21:59:05.708Z,34.00
2019-02-06T22:01:35.107Z,34.23
2019-02-06T22:04:05.182Z,33.67
2019-02-06T22:06:34.544Z,34.90
2019-02-06T22:09:04.918Z,34.87
2019-02-06T22:11:34.597Z,33.57
2019-02-06T22:14:03.939Z,35.13
2019-02-06T22:16:33.842Z,33.53
2019-02-06T22:19:03.068Z,35.13
2019-02-06T22:21:32.678Z,34.17
2019-02-06T22:24:03.371Z,33.40
2019-02-06T22:26:33.015Z,35.07
2019-02-06T22:29:03.270Z,32.80
2019-02-06T22:31:32.878Z,32.40
2019-02-06T22:34:02.309Z,32.87
2019-02-06T22:36:31.926Z,35.50
2019-02-06T22:39:01.695Z,33.90
2019-02-06T22:41:31.074Z,32.80
2019-02-06T22:44:06.598Z,32.00
2019-02-06T22:46:32.431Z,33.23
2019-02-06T22:49:02.337Z,31.20
2019-02-06T22:51:32.127Z,31.50
2019-02-06T22:54:01.741Z,30.57
2019-02-06T22:56:31.136Z,30.90
2019-02-06T22:59:01.177Z,31.30
2019-02-06T23:01:45.603Z,31.33
2019-02-06T23:04:14.957Z,29.77
2019-02-06T23:06:44.590Z,29.83
2019-02-06T23:09:13.982Z,31.37
2019-02-06T23:11:43.429Z,30.87
2019-02-06T23:14:17.740Z,32.40
2019-02-06T23:16:44.664Z,31.00
2019-02-06T23:19:14.380Z,31.47
2019-02-06T23:21:44.010Z,30.37
2019-02-06T23:24:13.362Z,30.80
2019-02-06T23:26:42.731Z,28.90
2019-02-06T23:29:12.098Z,30.93
2019-02-06T23:31:41.441Z,27.47
2019-02-06T23:34:11.145Z,27.70
2019-02-06T23:36:41.056Z,27.27
2019-02-06T23:39:18.368Z,24.93
2019-02-06T23:41:48.024Z,25.93
2019-02-06T23:44:28.343Z,26.00
2019-02-06T23:46:48.841Z,26.47
2019-02-06T23:49:18.463Z,27.13
2019-02-06T23:52:07.550Z,25.83
2019-02-06T23:54:37.373Z,26.00
2019-02-06T23:57:07.338Z,27.47
2019-02-06T23:59:36.729Z,22.53
